createdAt,value
2022-08-01T00:03:40.903Z,24.09
2022-08-01T00:08:44.736Z,24.09
2022-08-01T00:13:57.400Z,24.08
2022-08-01T00:19:00.835Z,24.11
2022-08-01T00:24:04.455Z,24.10
2022-08-01T00:29:10.161Z,24.12
2022-08-01T00:34:31.965Z,24.14
2022-08-01T00:39:35.588Z,24.17
2022-08-01T00:44:39.856Z,24.20
2022-08-01T00:49:43.291Z,24.20
2022-08-01T00:54:47.475Z,24.21
2022-08-01T00:59:51.393Z,24.20
2022-08-01T01:04:55.921Z,24.19
2022-08-01T01:10:05.076Z,24.18
2022-08-01T01:15:27.849Z,24.15
2022-08-01T01:20:41.594Z,24.16
2022-08-01T01:26:15.757Z,24.15
2022-08-01T01:31:22.580Z,24.13
2022-08-01T01:36:28.451Z,24.09
2022-08-01T01:41:33.079Z,24.10
2022-08-01T01:46:37.688Z,24.10
2022-08-01T01:51:54.198Z,24.09
2022-08-01T01:57:09.504Z,24.06
2022-08-01T02:02:15.766Z,24.05
2022-08-01T02:07:23.553Z,24.04
2022-08-01T02:12:28.240Z,24.01
2022-08-01T02:17:32.592Z,24.02
2022-08-01T02:22:43.387Z,24.00
2022-08-01T02:27:59.035Z,24.01
2022-08-01T02:33:25.961Z,24.02
2022-08-01T02:38:33.652Z,24.02
2022-08-01T02:43:47.083Z,24.02
2022-08-01T02:48:59.917Z,24.01
2022-08-01T02:54:06.529Z,24.00
2022-08-01T02:59:14.526Z,23.97
2022-08-01T03:04:20.296Z,23.95
2022-08-01T03:09:26.342Z,23.93
2022-08-01T03:14:32.386Z,23.92
2022-08-01T03:19:37.444Z,23.91
2022-08-01T03:24:43.929Z,23.90
2022-08-01T03:29:49.554Z,23.91
2022-08-01T03:34:53.263Z,23.92
2022-08-01T03:40:03.435Z,23.92
2022-08-01T03:45:13.282Z,23.92
2022-08-01T03:50:20.284Z,23.97
2022-08-01T03:55:24.638Z,24.02
2022-08-01T04:00:29.276Z,24.10
2022-08-01T04:05:32.723Z,24.18
2022-08-01T04:10:37.720Z,24.28
2022-08-01T04:15:41.179Z,24.38
2022-08-01T04:20:44.647Z,24.48
2022-08-01T04:25:51.159Z,24.56
2022-08-01T04:31:01.667Z,24.63
2022-08-01T04:36:08.198Z,24.68
2022-08-01T04:41:14.019Z,24.77
2022-08-01T04:46:17.563Z,24.87
2022-08-01T04:51:32.630Z,24.98
2022-08-01T04:56:36.121Z,25.12
2022-08-01T05:01:40.018Z,25.28
2022-08-01T05:06:44.704Z,25.40
2022-08-01T05:11:48.321Z,25.48
2022-08-01T05:16:51.825Z,25.57
2022-08-01T05:21:55.168Z,25.71
2022-08-01T05:27:04.198Z,25.87
2022-08-01T05:32:08.087Z,26.09
2022-08-01T05:37:11.688Z,27.02
2022-08-01T05:42:15.000Z,27.52
2022-08-01T05:47:18.733Z,27.53
2022-08-01T05:52:22.088Z,27.47
2022-08-01T05:57:26.076Z,27.51
2022-08-01T06:02:29.777Z,28.03
2022-08-01T06:07:33.746Z,28.18
2022-08-01T06:12:42.086Z,28.24
2022-08-01T06:17:45.939Z,28.37
2022-08-01T06:22:52.568Z,28.60
2022-08-01T06:27:56.701Z,30.07
2022-08-01T06:33:00.478Z,33.23
2022-08-01T06:38:04.499Z,33.74
2022-08-01T06:43:08.722Z,32.30
2022-08-01T06:48:12.496Z,33.84
2022-08-01T06:53:15.966Z,35.51
2022-08-01T06:58:19.296Z,35.54
2022-08-01T07:03:24.533Z,35.40
2022-08-01T07:08:28.720Z,34.41
2022-08-01T07:13:43.993Z,33.76
2022-08-01T07:18:49.441Z,34.13
2022-08-01T07:23:52.977Z,33.63
2022-08-01T07:28:59.348Z,34.31
2022-08-01T07:34:03.534Z,34.99
2022-08-01T07:39:07.087Z,34.13
2022-08-01T07:44:10.600Z,33.59
2022-08-01T07:49:13.965Z,33.45
2022-08-01T07:54:17.572Z,33.14
2022-08-01T07:59:23.255Z,32.95
2022-08-01T08:04:29.772Z,32.80
2022-08-01T08:09:37.447Z,32.54
2022-08-01T08:14:41.770Z,32.31
2022-08-01T08:19:45.326Z,32.32
2022-08-01T08:24:48.878Z,32.40
2022-08-01T08:29:52.341Z,32.58
2022-08-01T08:34:55.871Z,32.62
2022-08-01T08:39:59.652Z,32.71
2022-08-01T08:45:03.903Z,32.58
2022-08-01T08:50:08.521Z,32.34
2022-08-01T08:55:13.670Z,31.91
2022-08-01T09:00:17.658Z,31.72
2022-08-01T09:05:25.042Z,31.78
2022-08-01T09:10:48.357Z,31.69
2022-08-01T09:15:58.509Z,31.50
2022-08-01T09:21:14.914Z,31.30
2022-08-01T09:26:31.442Z,31.06
2022-08-01T09:31:47.502Z,30.93
2022-08-01T09:36:57.780Z,30.82
2022-08-01T09:42:04.032Z,30.96
2022-08-01T09:47:08.198Z,30.75
2022-08-01T09:52:25.898Z,30.88
2022-08-01T09:57:32.638Z,30.92
2022-08-01T10:02:38.482Z,30.86
2022-08-01T10:08:02.601Z,30.76
2022-08-01T10:13:13.120Z,30.80
2022-08-01T10:18:25.868Z,31.00
2022-08-01T10:23:40.469Z,31.16
2022-08-01T10:28:49.191Z,31.19
2022-08-01T10:33:53.770Z,31.12
2022-08-01T10:38:59.583Z,31.05
2022-08-01T10:44:04.431Z,31.00
2022-08-01T10:49:15.191Z,30.88
2022-08-01T10:54:18.660Z,30.61
2022-08-01T10:59:50.971Z,30.55
2022-08-01T11:05:02.134Z,30.57
2022-08-01T11:10:51.187Z,30.44
2022-08-01T11:16:28.300Z,30.46
2022-08-01T11:21:59.150Z,30.34
2022-08-01T11:27:23.541Z,30.29
2022-08-01T11:32:28.864Z,30.32
2022-08-01T11:37:32.248Z,30.35
2022-08-01T11:42:36.719Z,30.28
2022-08-01T11:47:51.352Z,30.19
2022-08-01T11:53:06.404Z,30.06
2022-08-01T11:58:22.279Z,29.99
2022-08-01T12:03:34.519Z,29.86
2022-08-01T12:08:43.100Z,29.67
2022-08-01T12:13:46.818Z,29.64
2022-08-01T12:18:50.361Z,29.63
2022-08-01T12:24:04.569Z,29.61
2022-08-01T12:29:08.565Z,29.55
2022-08-01T12:34:28.374Z,29.51
2022-08-01T12:39:34.002Z,29.54
2022-08-01T12:44:39.186Z,29.58
2022-08-01T12:49:44.661Z,29.48
2022-08-01T12:55:09.616Z,29.35
2022-08-01T13:00:21.035Z,29.33
2022-08-01T13:05:26.298Z,29.34
2022-08-01T13:10:31.738Z,29.34
2022-08-01T13:15:41.867Z,29.32
2022-08-01T13:20:45.641Z,29.32
2022-08-01T13:25:56.902Z,29.34
2022-08-01T13:31:01.278Z,29.33
2022-08-01T13:36:05.389Z,29.31
2022-08-01T13:41:09.460Z,29.31
2022-08-01T13:46:13.139Z,29.31
2022-08-01T13:51:22.713Z,29.17
2022-08-01T13:56:27.253Z,29.04
2022-08-01T14:01:34.207Z,28.99
2022-08-01T14:06:38.175Z,28.96
2022-08-01T14:11:45.844Z,28.90
2022-08-01T14:16:49.550Z,28.88
2022-08-01T14:21:53.861Z,28.95
2022-08-01T14:26:58.323Z,28.91
2022-08-01T14:32:02.348Z,29.00
2022-08-01T14:37:06.128Z,28.99
2022-08-01T14:42:11.979Z,28.84
2022-08-01T14:47:22.074Z,28.73
2022-08-01T14:52:25.992Z,28.66
2022-08-01T14:57:30.580Z,28.57
2022-08-01T15:02:34.152Z,28.53
2022-08-01T15:07:41.762Z,28.43
2022-08-01T15:12:55.959Z,28.39
2022-08-01T15:18:00.835Z,28.38
2022-08-01T15:23:04.346Z,28.30
2022-08-01T15:28:07.775Z,28.15
2022-08-01T15:33:11.046Z,28.04
2022-08-01T15:38:14.481Z,28.02
2022-08-01T15:43:17.650Z,27.96
2022-08-01T15:48:21.035Z,27.86
2022-08-01T15:53:24.627Z,27.74
2022-08-01T15:58:28.255Z,27.61
2022-08-01T16:03:31.734Z,27.49
2022-08-01T16:08:36.955Z,27.35
2022-08-01T16:13:40.415Z,27.30
2022-08-01T16:18:44.285Z,27.30
2022-08-01T16:23:47.814Z,27.27
2022-08-01T16:28:51.862Z,27.21
2022-08-01T16:33:58.220Z,27.11
2022-08-01T16:39:05.681Z,27.02
2022-08-01T16:44:10.874Z,26.96
2022-08-01T16:49:17.084Z,26.85
2022-08-01T16:54:24.647Z,26.80
2022-08-01T16:59:30.057Z,26.77
2022-08-01T17:04:41.374Z,26.77
2022-08-01T17:09:44.907Z,26.78
2022-08-01T17:14:49.405Z,26.81
2022-08-01T17:19:52.998Z,26.88
2022-08-01T17:24:56.713Z,26.87
2022-08-01T17:30:00.149Z,26.78
2022-08-01T17:35:04.232Z,26.71
2022-08-01T17:40:37.489Z,26.64
2022-08-01T17:45:32.129Z,26.59
2022-08-01T17:50:45.378Z,26.51
2022-08-01T17:55:54.484Z,26.47
2022-08-01T18:01:01.104Z,26.38
2022-08-01T18:06:04.531Z,26.38
2022-08-01T18:11:09.174Z,26.35
2022-08-01T18:16:13.597Z,26.36
2022-08-01T18:21:17.525Z,26.38
2022-08-01T18:26:21.984Z,26.36
2022-08-01T18:31:25.580Z,26.32
2022-08-01T18:36:32.312Z,26.28
2022-08-01T18:41:38.700Z,26.25
2022-08-01T18:46:42.363Z,26.22
2022-08-01T18:51:46.290Z,26.22
2022-08-01T18:56:56.644Z,26.21
2022-08-01T19:02:00.796Z,26.16
2022-08-01T19:07:05.605Z,26.17
2022-08-01T19:12:09.477Z,26.16
2022-08-01T19:17:13.192Z,26.11
2022-08-01T19:22:17.114Z,26.07
2022-08-01T19:27:24.087Z,26.00
2022-08-01T19:32:30.524Z,25.97
2022-08-01T19:37:34.589Z,25.93
2022-08-01T19:42:41.916Z,25.90
2022-08-01T19:47:51.851Z,25.88
2022-08-01T19:53:03.479Z,25.86
2022-08-01T19:58:26.399Z,25.84
2022-08-01T20:03:34.116Z,25.82
2022-08-01T20:08:38.035Z,25.83
2022-08-01T20:13:41.730Z,25.80
2022-08-01T20:18:45.311Z,25.81
2022-08-01T20:23:51.250Z,25.80
2022-08-01T20:28:56.819Z,25.79
2022-08-01T20:34:01.120Z,25.76
2022-08-01T20:39:04.618Z,25.73
2022-08-01T20:44:09.710Z,25.68
2022-08-01T20:49:13.789Z,25.68
2022-08-01T20:54:17.231Z,25.68
2022-08-01T20:59:39.618Z,25.67
2022-08-01T21:05:03.731Z,25.65
2022-08-01T21:10:09.528Z,25.60
2022-08-01T21:15:37.866Z,25.59
2022-08-01T21:21:11.493Z,25.59
2022-08-01T21:26:21.093Z,25.56
2022-08-01T21:31:25.703Z,25.50
2022-08-01T21:36:45.635Z,25.49
2022-08-01T21:41:56.713Z,25.46
2022-08-01T21:47:11.868Z,25.44
2022-08-01T21:52:17.715Z,25.42
2022-08-01T21:57:43.222Z,25.39
2022-08-01T22:03:08.018Z,25.39
2022-08-01T22:08:13.797Z,25.42
2022-08-01T22:13:17.420Z,25.45
2022-08-01T22:18:20.933Z,25.43
2022-08-01T22:23:24.562Z,25.42
2022-08-01T22:28:28.975Z,25.41
2022-08-01T22:33:35.746Z,25.42
2022-08-01T22:38:39.089Z,25.44
2022-08-01T22:44:08.491Z,25.44
2022-08-01T22:49:32.108Z,25.41
2022-08-01T22:54:43.082Z,25.33
2022-08-01T22:59:57.561Z,25.27
2022-08-01T23:05:06.820Z,25.22
2022-08-01T23:10:10.349Z,25.21
2022-08-01T23:15:14.072Z,25.21
2022-08-01T23:20:18.620Z,25.20
2022-08-01T23:25:23.715Z,25.18
2022-08-01T23:30:30.820Z,25.18
2022-08-01T23:35:35.492Z,25.21
2022-08-01T23:40:43.145Z,25.19
2022-08-01T23:46:03.230Z,25.16
2022-08-01T23:51:09.402Z,25.15
2022-08-01T23:56:19.163Z,25.12
